Time;durP1;ratioP1;P1;durP2;ratioP2;P2;SDS_P1;SDS_P2;PMS_P1;PMS_P2;Temp;Humidity;BMP_temperature;BMP_pressure;BME280_temperature;BME280_humidity;BME280_pressure;Samples;Min_cycle;Max_cycle;Signal;HPM_P1;HPM_P2
2024/01/05 00:01:26;;;;;;;21.13;10.02;;;;;;;;;;5097463;28;20043;-79
2024/01/05 00:03:52;;;;;;;20.23;11.05;;;;;;;;;;5097292;28;20395;-79
2024/01/05 00:06:19;;;;;;;20.45;11.05;;;;;;;;;;5097963;28;20096;-79
2024/01/05 00:08:45;;;;;;;19.85;11.10;;;;;;;;;;5097636;28;20088;-79
2024/01/05 00:11:18;;;;;;;17.88;10.73;;;;;;;;;;5096973;28;20047;-79
2024/01/05 00:13:44;;;;;;;21.00;10.43;;;;;;;;;;5096837;28;20048;-79
2024/01/05 00:16:19;;;;;;;16.88;10.45;;;;;;;;;;5097149;28;20411;-79
2024/01/05 00:18:46;;;;;;;21.73;11.32;;;;;;;;;;5114967;28;20517;-79
2024/01/05 00:21:25;;;;;;;22.75;11.63;;;;;;;;;;5096389;28;20543;-79
2024/01/05 00:23:53;;;;;;;22.67;10.77;;;;;;;;;;5096784;28;20463;-79
2024/01/05 00:26:19;;;;;;;18.52;10.57;;;;;;;;;;5096688;28;20043;-80
2024/01/05 00:28:46;;;;;;;19.05;9.63;;;;;;;;;;5114845;28;20430;-80
2024/01/05 00:31:13;;;;;;;22.30;11.32;;;;;;;;;;5114484;28;20550;-80
2024/01/05 00:33:39;;;;;;;19.23;11.25;;;;;;;;;;5096813;28;20051;-80
2024/01/05 00:36:06;;;;;;;23.88;10.50;;;;;;;;;;5097168;28;20039;-80
2024/01/05 00:38:32;;;;;;;24.48;11.48;;;;;;;;;;5097244;28;20047;-80
2024/01/05 00:40:58;;;;;;;26.55;12.27;;;;;;;;;;5096472;28;20073;-80
2024/01/05 00:43:24;;;;;;;21.75;11.27;;;;;;;;;;5096228;28;20491;-80
2024/01/05 00:45:50;;;;;;;21.67;10.50;;;;;;;;;;5096712;28;20047;-80
2024/01/05 00:48:16;;;;;;;19.98;10.55;;;;;;;;;;5114321;28;20047;-80
2024/01/05 00:50:42;;;;;;;21.42;11.95;;;;;;;;;;5095122;28;20044;-80
2024/01/05 00:53:09;;;;;;;22.30;11.75;;;;;;;;;;5095833;28;20044;-80
2024/01/05 00:55:35;;;;;;;24.27;12.45;;;;;;;;;;5096246;28;20438;-80
2024/01/05 00:58:01;;;;;;;25.02;11.90;;;;;;;;;;5096227;28;20043;-80
2024/01/05 01:00:27;;;;;;;20.73;11.77;;;;;;;;;;5096474;28;20044;-80
2024/01/05 01:02:53;;;;;;;20.67;11.88;;;;;;;;;;5096705;28;20048;-80
2024/01/05 01:05:19;;;;;;;25.05;12.10;;;;;;;;;;5114682;28;20054;-80
2024/01/05 01:07:45;;;;;;;23.00;11.85;;;;;;;;;;5096416;28;20039;-80
2024/01/05 01:10:11;;;;;;;25.85;11.85;;;;;;;;;;5114096;28;20104;-80
2024/01/05 01:12:37;;;;;;;24.05;11.82;;;;;;;;;;5114270;28;20061;-81
2024/01/05 01:15:05;;;;;;;22.70;10.05;;;;;;;;;;5114231;28;20079;-80
2024/01/05 01:17:31;;;;;;;16.08;9.15;;;;;;;;;;5096209;28;20470;-80
2024/01/05 01:19:57;;;;;;;23.90;11.00;;;;;;;;;;5095724;28;20056;-80
2024/01/05 01:22:23;;;;;;;19.88;11.32;;;;;;;;;;5114160;28;20376;-80
2024/01/05 01:24:49;;;;;;;14.50;9.65;;;;;;;;;;5099451;28;20039;-80
2024/01/05 01:27:16;;;;;;;21.45;10.63;;;;;;;;;;5100082;28;20044;-80
2024/01/05 01:29:42;;;;;;;22.30;10.48;;;;;;;;;;5118380;28;20051;-80
2024/01/05 01:32:11;;;;;;;21.02;9.93;;;;;;;;;;5100283;28;20044;-81
2024/01/05 01:34:40;;;;;;;18.70;11.23;;;;;;;;;;5100425;28;20052;-81
2024/01/05 01:37:06;;;;;;;25.05;11.57;;;;;;;;;;5100272;28;20383;-80
2024/01/05 01:39:33;;;;;;;20.02;10.40;;;;;;;;;;5099977;28;20048;-80
2024/01/05 01:42:00;;;;;;;22.40;10.02;;;;;;;;;;5100172;28;20056;-80
2024/01/05 01:44:26;;;;;;;21.75;10.23;;;;;;;;;;5099264;28;20048;-80
2024/01/05 01:46:54;;;;;;;20.83;10.35;;;;;;;;;;5118070;28;20122;-80
2024/01/05 01:49:20;;;;;;;21.15;10.02;;;;;;;;;;5117377;28;20055;-80
2024/01/05 01:51:46;;;;;;;19.83;9.63;;;;;;;;;;5118002;28;20456;-80
2024/01/05 01:54:13;;;;;;;18.42;9.77;;;;;;;;;;5100048;28;20059;-80
2024/01/05 01:56:39;;;;;;;20.73;9.85;;;;;;;;;;5100033;28;20096;-80
2024/01/05 01:59:06;;;;;;;20.02;10.68;;;;;;;;;;5117731;28;20039;-80
2024/01/05 02:01:32;;;;;;;20.45;10.00;;;;;;;;;;5118086;28;20085;-80
2024/01/05 02:03:58;;;;;;;19.13;10.35;;;;;;;;;;5099575;28;20093;-80
2024/01/05 02:06:25;;;;;;;14.88;8.60;;;;;;;;;;5117541;28;20047;-80
2024/01/05 02:08:51;;;;;;;16.02;9.95;;;;;;;;;;5117616;28;20074;-80
2024/01/05 02:11:18;;;;;;;17.40;9.40;;;;;;;;;;5099984;28;20498;-80
2024/01/05 02:13:44;;;;;;;19.65;10.45;;;;;;;;;;5099504;28;20399;-80
2024/01/05 02:16:10;;;;;;;15.77;8.88;;;;;;;;;;5117504;28;20059;-80
2024/01/05 02:18:36;;;;;;;17.33;9.55;;;;;;;;;;5117476;28;20493;-80
2024/01/05 02:21:04;;;;;;;18.02;10.52;;;;;;;;;;5116617;28;20487;-80
2024/01/05 02:23:31;;;;;;;15.27;8.82;;;;;;;;;;5117095;28;20044;-80
2024/01/05 02:25:58;;;;;;;17.60;10.70;;;;;;;;;;5099394;28;20476;-80
2024/01/05 02:28:24;;;;;;;24.52;11.73;;;;;;;;;;5099263;28;20052;-80
2024/01/05 02:30:50;;;;;;;19.77;11.13;;;;;;;;;;5099190;28;20130;-80
2024/01/05 02:33:16;;;;;;;16.10;10.00;;;;;;;;;;5117095;28;20048;-80
2024/01/05 02:35:42;;;;;;;17.25;10.75;;;;;;;;;;5099723;28;20058;-80
2024/01/05 02:38:08;;;;;;;15.73;9.27;;;;;;;;;;5099098;28;20040;-79
2024/01/05 02:40:34;;;;;;;15.30;10.23;;;;;;;;;;5099664;28;20082;-78
2024/01/05 02:43:00;;;;;;;17.20;10.48;;;;;;;;;;5116557;28;20066;-79
2024/01/05 02:45:27;;;;;;;16.98;10.35;;;;;;;;;;5116760;28;20043;-79
2024/01/05 02:47:53;;;;;;;10.60;7.40;;;;;;;;;;5098857;28;20101;-78
2024/01/05 02:50:19;;;;;;;20.58;11.93;;;;;;;;;;5116160;28;20554;-79
2024/01/05 02:52:46;;;;;;;17.45;10.80;;;;;;;;;;5116602;28;20044;-78
2024/01/05 02:55:12;;;;;;;16.48;11.02;;;;;;;;;;5098999;28;20085;-78
2024/01/05 02:57:39;;;;;;;14.25;9.32;;;;;;;;;;5098671;28;20138;-79
2024/01/05 03:00:05;;;;;;;15.18;9.15;;;;;;;;;;5098347;28;20047;-79
2024/01/05 03:02:31;;;;;;;14.73;9.48;;;;;;;;;;5098622;28;20048;-79
2024/01/05 03:04:58;;;;;;;14.45;9.43;;;;;;;;;;5116808;28;20130;-79
2024/01/05 03:07:24;;;;;;;13.30;9.20;;;;;;;;;;5098532;28;20377;-79
2024/01/05 03:09:50;;;;;;;11.23;8.70;;;;;;;;;;5116420;28;20047;-80
2024/01/05 03:12:17;;;;;;;14.57;9.48;;;;;;;;;;5116357;28;20070;-80
2024/01/05 03:14:43;;;;;;;14.45;10.15;;;;;;;;;;5116294;28;20043;-80
2024/01/05 03:17:09;;;;;;;13.23;8.60;;;;;;;;;;5098273;28;20122;-80
2024/01/05 03:19:35;;;;;;;13.93;9.30;;;;;;;;;;5064492;28;20055;-80
2024/01/05 03:22:01;;;;;;;14.60;9.40;;;;;;;;;;5098140;28;20053;-80
2024/01/05 03:24:27;;;;;;;14.75;10.23;;;;;;;;;;5097748;28;20043;-80
2024/01/05 03:26:53;;;;;;;10.45;8.43;;;;;;;;;;5098043;28;20071;-80
2024/01/05 03:29:19;;;;;;;15.02;10.32;;;;;;;;;;5115995;28;20039;-80
2024/01/05 03:31:46;;;;;;;7.68;5.03;;;;;;;;;;5098473;28;20044;-80
2024/01/05 03:34:13;;;;;;;14.80;10.85;;;;;;;;;;5081081;28;20048;-80
2024/01/05 03:36:39;;;;;;;14.48;9.20;;;;;;;;;;5097994;28;20072;-80
2024/01/05 03:39:06;;;;;;;12.88;7.93;;;;;;;;;;5098187;28;20051;-80
2024/01/05 03:41:33;;;;;;;16.83;10.73;;;;;;;;;;5097545;28;20468;-80
2024/01/05 03:43:59;;;;;;;17.13;11.02;;;;;;;;;;5097503;28;20059;-80
2024/01/05 03:46:25;;;;;;;15.55;10.30;;;;;;;;;;5097315;28;20437;-80
2024/01/05 03:48:51;;;;;;;15.20;9.60;;;;;;;;;;5115650;28;20083;-80
2024/01/05 03:51:17;;;;;;;12.73;9.82;;;;;;;;;;5114723;28;20492;-80
2024/01/05 03:53:43;;;;;;;16.10;11.00;;;;;;;;;;5080926;28;20051;-80
2024/01/05 03:56:09;;;;;;;15.85;11.13;;;;;;;;;;5080884;28;20040;-81
2024/01/05 03:58:35;;;;;;;13.60;9.88;;;;;;;;;;5097487;28;20467;-80
2024/01/05 04:01:02;;;;;;;18.00;11.38;;;;;;;;;;5098232;28;20051;-80
2024/01/05 04:03:28;;;;;;;13.63;9.77;;;;;;;;;;5098193;28;20070;-80
2024/01/05 04:05:55;;;;;;;13.05;9.10;;;;;;;;;;5097383;28;20043;-80
2024/01/05 04:08:21;;;;;;;12.60;9.45;;;;;;;;;;5097317;28;20051;-80
2024/01/05 04:10:47;;;;;;;13.93;9.35;;;;;;;;;;5097119;28;20046;-80
2024/01/05 04:13:13;;;;;;;12.32;9.88;;;;;;;;;;5096943;28;20496;-80
2024/01/05 04:15:40;;;;;;;12.15;9.80;;;;;;;;;;5097206;28;20047;-80
2024/01/05 04:18:06;;;;;;;13.63;10.13;;;;;;;;;;5097219;28;20484;-80
2024/01/05 04:20:32;;;;;;;15.18;10.88;;;;;;;;;;5096542;28;20043;-79
2024/01/05 04:23:00;;;;;;;15.68;11.07;;;;;;;;;;5115012;28;20051;-80
2024/01/05 04:25:26;;;;;;;15.73;11.27;;;;;;;;;;5096797;28;20050;-80
2024/01/05 04:27:52;;;;;;;14.95;10.85;;;;;;;;;;5114687;28;20130;-80
2024/01/05 04:30:20;;;;;;;15.93;9.82;;;;;;;;;;5096671;28;20484;-80
2024/01/05 04:32:46;;;;;;;17.38;11.82;;;;;;;;;;5096848;28;20055;-80
2024/01/05 04:35:13;;;;;;;11.55;9.27;;;;;;;;;;5096569;28;20055;-79
2024/01/05 04:37:39;;;;;;;16.40;11.75;;;;;;;;;;5114720;28;20541;-79
2024/01/05 04:40:06;;;;;;;16.67;11.38;;;;;;;;;;5096805;28;20056;-80
2024/01/05 04:42:32;;;;;;;18.35;11.90;;;;;;;;;;5114247;28;20514;-79
2024/01/05 04:44:58;;;;;;;12.02;8.25;;;;;;;;;;5114781;28;20441;-80
2024/01/05 04:47:25;;;;;;;18.25;13.10;;;;;;;;;;5114589;28;20092;-79
2024/01/05 04:49:51;;;;;;;18.40;12.23;;;;;;;;;;5097990;27;20051;-80
2024/01/05 04:52:17;;;;;;;18.38;13.25;;;;;;;;;;5116628;27;20089;-80
2024/01/05 04:54:43;;;;;;;18.95;11.45;;;;;;;;;;5116756;27;20035;-80
2024/01/05 04:57:09;;;;;;;17.85;13.05;;;;;;;;;;5116998;27;20135;-80
2024/01/05 04:59:35;;;;;;;15.55;11.88;;;;;;;;;;5116179;27;20050;-79
2024/01/05 05:02:01;;;;;;;14.85;11.27;;;;;;;;;;5116932;27;20091;-79
2024/01/05 05:04:27;;;;;;;15.13;11.95;;;;;;;;;;5116485;28;20043;-80
2024/01/05 05:06:53;;;;;;;17.55;13.77;;;;;;;;;;5134692;27;20086;-79
2024/01/05 05:09:20;;;;;;;16.70;13.30;;;;;;;;;;5116988;27;20092;-79
2024/01/05 05:11:46;;;;;;;16.45;12.48;;;;;;;;;;5117016;28;20054;-79
2024/01/05 05:14:12;;;;;;;16.25;12.55;;;;;;;;;;5134623;27;20043;-80
2024/01/05 05:16:39;;;;;;;20.50;14.82;;;;;;;;;;5134780;27;20065;-79
2024/01/05 05:19:05;;;;;;;14.80;12.55;;;;;;;;;;5099528;28;20078;-79
2024/01/05 05:21:32;;;;;;;18.05;12.65;;;;;;;;;;5116092;28;20050;-80
2024/01/05 05:23:58;;;;;;;18.60;13.48;;;;;;;;;;5116487;28;20487;-79
2024/01/05 05:26:24;;;;;;;18.33;12.98;;;;;;;;;;5116545;28;20086;-79
2024/01/05 05:28:50;;;;;;;20.35;14.23;;;;;;;;;;5099236;28;20054;-79
2024/01/05 05:31:16;;;;;;;18.48;13.45;;;;;;;;;;5116563;28;20047;-79
2024/01/05 05:33:42;;;;;;;14.77;11.60;;;;;;;;;;5134494;28;20043;-79
2024/01/05 05:36:08;;;;;;;18.08;13.65;;;;;;;;;;5116579;28;20133;-79
2024/01/05 05:38:34;;;;;;;23.40;15.35;;;;;;;;;;5116513;28;20039;-79
2024/01/05 05:41:00;;;;;;;16.00;12.68;;;;;;;;;;5116669;28;20402;-79
2024/01/05 05:43:27;;;;;;;12.10;7.45;;;;;;;;;;5115869;28;20048;-79
2024/01/05 05:45:53;;;;;;;22.70;15.80;;;;;;;;;;5099072;28;20039;-79
2024/01/05 05:48:19;;;;;;;19.83;14.02;;;;;;;;;;5082504;28;20532;-79
2024/01/05 05:50:45;;;;;;;20.27;14.95;;;;;;;;;;5115441;28;20393;-80
2024/01/05 05:53:11;;;;;;;23.23;15.77;;;;;;;;;;5116264;28;20097;-79
2024/01/05 05:55:37;;;;;;;19.75;15.18;;;;;;;;;;5134433;28;20171;-79
2024/01/05 05:58:03;;;;;;;18.15;12.50;;;;;;;;;;5116311;28;20043;-79
2024/01/05 06:00:29;;;;;;;20.50;15.57;;;;;;;;;;5134640;28;20047;-79
2024/01/05 06:02:55;;;;;;;20.00;15.02;;;;;;;;;;5116286;28;20483;-79
2024/01/05 06:05:21;;;;;;;22.33;15.02;;;;;;;;;;5098750;28;20069;-79
2024/01/05 06:07:47;;;;;;;22.88;16.95;;;;;;;;;;5133951;28;20039;-80
2024/01/05 06:10:14;;;;;;;20.13;15.02;;;;;;;;;;5136089;27;20498;-79
2024/01/05 06:12:40;;;;;;;23.40;17.20;;;;;;;;;;5120273;27;20055;-79
2024/01/05 06:15:07;;;;;;;26.05;17.65;;;;;;;;;;5120021;27;20050;-79
2024/01/05 06:17:33;;;;;;;23.95;15.90;;;;;;;;;;5120072;27;20047;-79
2024/01/05 06:19:59;;;;;;;26.92;17.52;;;;;;;;;;5137416;27;20054;-80
2024/01/05 06:22:25;;;;;;;23.60;16.40;;;;;;;;;;5119675;27;20096;-80
2024/01/05 06:24:51;;;;;;;22.85;17.83;;;;;;;;;;5137714;27;20085;-79
2024/01/05 06:27:17;;;;;;;21.25;16.75;;;;;;;;;;5119771;27;20047;-79
2024/01/05 06:29:43;;;;;;;25.95;17.25;;;;;;;;;;5102754;27;20043;-79
2024/01/05 06:32:09;;;;;;;21.83;17.42;;;;;;;;;;5119635;27;20083;-79
2024/01/05 06:34:35;;;;;;;26.33;17.95;;;;;;;;;;5119152;27;20061;-79
2024/01/05 06:37:01;;;;;;;26.73;18.25;;;;;;;;;;5119700;27;20050;-79
2024/01/05 06:39:27;;;;;;;28.65;19.30;;;;;;;;;;5119721;27;20039;-79
2024/01/05 06:41:53;;;;;;;24.90;18.75;;;;;;;;;;5119844;27;20395;-79
2024/01/05 06:44:19;;;;;;;31.60;20.58;;;;;;;;;;5137739;27;20051;-79
2024/01/05 06:46:45;;;;;;;27.30;17.75;;;;;;;;;;5119283;27;20436;-80
2024/01/05 06:49:11;;;;;;;28.88;19.05;;;;;;;;;;5119150;27;20054;-80
2024/01/05 06:51:38;;;;;;;26.75;19.42;;;;;;;;;;5118593;27;20035;-80
2024/01/05 06:54:04;;;;;;;27.55;18.58;;;;;;;;;;5137325;27;20079;-79
2024/01/05 06:56:34;;;;;;;27.15;19.13;;;;;;;;;;5119263;27;20051;-79
2024/01/05 06:59:04;;;;;;;26.60;18.90;;;;;;;;;;5102037;27;20051;-79
2024/01/05 07:01:33;;;;;;;19.77;12.85;;;;;;;;;;5102080;27;20158;-80
2024/01/05 07:03:59;;;;;;;21.67;16.38;;;;;;;;;;5137143;27;20055;-79
2024/01/05 07:06:25;;;;;;;24.58;18.75;;;;;;;;;;5137104;27;20096;-79
2024/01/05 07:08:52;;;;;;;29.75;20.30;;;;;;;;;;5118772;27;20047;-79
2024/01/05 07:11:22;;;;;;;22.10;15.98;;;;;;;;;;5118916;27;20372;-79
2024/01/05 07:13:49;;;;;;;27.27;18.75;;;;;;;;;;5118635;27;20380;-79
2024/01/05 07:16:16;;;;;;;28.25;20.40;;;;;;;;;;5118801;27;20069;-79
2024/01/05 07:18:42;;;;;;;33.60;20.63;;;;;;;;;;5136835;27;20043;-79
2024/01/05 07:21:08;;;;;;;31.40;21.08;;;;;;;;;;5135475;27;20050;-80
2024/01/05 07:23:36;;;;;;;31.95;20.13;;;;;;;;;;5118394;27;20444;-80
2024/01/05 07:26:02;;;;;;;27.73;16.58;;;;;;;;;;5118841;27;20035;-79
2024/01/05 07:28:28;;;;;;;21.15;12.35;;;;;;;;;;5118457;27;20050;-79
2024/01/05 07:30:54;;;;;;;23.75;15.55;;;;;;;;;;5101534;27;20090;-79
2024/01/05 07:33:20;;;;;;;29.35;19.27;;;;;;;;;;5118482;27;20058;-79
2024/01/05 07:35:46;;;;;;;30.33;18.88;;;;;;;;;;5118161;27;20039;-79
2024/01/05 07:38:12;;;;;;;29.30;19.45;;;;;;;;;;5136451;27;20083;-79
2024/01/05 07:40:38;;;;;;;34.17;20.98;;;;;;;;;;5102535;28;20051;-80
2024/01/05 07:43:05;;;;;;;26.50;18.63;;;;;;;;;;5097375;28;20059;-79
2024/01/05 07:45:31;;;;;;;29.80;19.80;;;;;;;;;;5115731;28;20048;-79
2024/01/05 07:47:57;;;;;;;30.95;20.70;;;;;;;;;;5115383;28;20487;-79
2024/01/05 07:50:24;;;;;;;31.23;18.75;;;;;;;;;;5115675;28;20059;-79
2024/01/05 07:52:51;;;;;;;27.80;15.23;;;;;;;;;;5080853;28;20067;-79
2024/01/05 07:55:17;;;;;;;28.40;19.38;;;;;;;;;;5097771;28;20052;-79
2024/01/05 07:57:43;;;;;;;34.30;19.98;;;;;;;;;;5115493;28;20055;-79
2024/01/05 08:00:10;;;;;;;21.15;12.95;;;;;;;;;;5097856;28;20036;-79
2024/01/05 08:02:36;;;;;;;27.17;18.35;;;;;;;;;;5080818;28;20056;-79
2024/01/05 08:05:02;;;;;;;32.38;18.92;;;;;;;;;;5096836;28;20043;-79
2024/01/05 08:07:28;;;;;;;25.90;16.42;;;;;;;;;;5097443;28;20113;-78
2024/01/05 08:09:55;;;;;;;27.50;18.05;;;;;;;;;;5097371;28;20057;-79
2024/01/05 08:12:21;;;;;;;29.98;18.35;;;;;;;;;;5097218;28;20056;-79
2024/01/05 08:14:47;;;;;;;22.45;13.90;;;;;;;;;;5097218;28;20120;-79
2024/01/05 08:17:14;;;;;;;29.48;16.60;;;;;;;;;;5114727;28;20438;-78
2024/01/05 08:19:40;;;;;;;24.17;13.18;;;;;;;;;;5114379;28;20492;-79
2024/01/05 08:22:06;;;;;;;26.90;16.02;;;;;;;;;;5114703;28;20492;-79
2024/01/05 08:24:32;;;;;;;24.92;15.50;;;;;;;;;;5097016;28;20040;-79
2024/01/05 08:26:58;;;;;;;29.17;18.33;;;;;;;;;;5115010;28;20094;-79
2024/01/05 08:29:24;;;;;;;29.88;16.23;;;;;;;;;;5097172;28;20060;-79
2024/01/05 08:31:51;;;;;;;30.60;17.85;;;;;;;;;;5114658;28;20051;-79
2024/01/05 08:34:17;;;;;;;26.25;15.75;;;;;;;;;;5096651;28;20131;-79
2024/01/05 08:36:43;;;;;;;23.90;14.15;;;;;;;;;;5097060;28;20046;-79
2024/01/05 08:39:10;;;;;;;21.77;13.50;;;;;;;;;;5114861;28;20126;-79
2024/01/05 08:41:36;;;;;;;25.63;13.55;;;;;;;;;;5096665;28;20043;-79
2024/01/05 08:44:02;;;;;;;22.17;12.77;;;;;;;;;;5096184;28;20104;-79
2024/01/05 08:46:28;;;;;;;21.92;13.93;;;;;;;;;;5079759;28;20120;-79
2024/01/05 08:48:54;;;;;;;22.70;12.25;;;;;;;;;;5114954;28;20048;-79
2024/01/05 08:51:21;;;;;;;22.75;12.82;;;;;;;;;;5096262;28;20097;-79
2024/01/05 08:53:47;;;;;;;25.42;12.27;;;;;;;;;;5114610;28;20043;-79
2024/01/05 08:56:13;;;;;;;23.75;12.95;;;;;;;;;;5114485;28;20130;-79
2024/01/05 08:58:39;;;;;;;22.08;11.50;;;;;;;;;;5096531;28;20069;-79
2024/01/05 09:01:05;;;;;;;26.23;12.18;;;;;;;;;;5114440;28;20039;-79
2024/01/05 09:03:32;;;;;;;23.20;11.55;;;;;;;;;;5096387;28;20043;-79
2024/01/05 09:05:58;;;;;;;19.90;11.73;;;;;;;;;;5114335;28;20444;-79
2024/01/05 09:08:25;;;;;;;17.02;10.45;;;;;;;;;;5114339;28;20051;-79
2024/01/05 09:10:51;;;;;;;18.75;9.70;;;;;;;;;;5095964;28;20083;-79
2024/01/05 09:13:22;;;;;;;20.40;9.93;;;;;;;;;;5114254;28;20471;-79
2024/01/05 09:15:48;;;;;;;21.63;10.13;;;;;;;;;;5114265;28;20051;-79
2024/01/05 09:18:14;;;;;;;15.68;8.48;;;;;;;;;;5114189;28;20044;-79
2024/01/05 09:20:40;;;;;;;23.08;8.88;;;;;;;;;;5095576;28;20474;-80
2024/01/05 09:23:06;;;;;;;17.73;9.27;;;;;;;;;;5096690;28;20047;-79
2024/01/05 09:25:32;;;;;;;17.80;9.27;;;;;;;;;;5095961;28;20044;-80
2024/01/05 09:28:03;;;;;;;21.80;9.13;;;;;;;;;;5096198;28;20042;-80
2024/01/05 09:30:29;;;;;;;18.50;8.88;;;;;;;;;;5096150;28;20048;-79
2024/01/05 09:32:57;;;;;;;19.77;8.18;;;;;;;;;;5079452;28;20104;-79
2024/01/05 09:35:25;;;;;;;18.55;7.25;;;;;;;;;;5096190;28;20070;-80
2024/01/05 09:37:52;;;;;;;12.82;6.35;;;;;;;;;;5096175;28;20043;-80
2024/01/05 09:40:18;;;;;;;15.52;5.25;;;;;;;;;;5095870;28;20399;-80
2024/01/05 09:42:50;;;;;;;12.15;5.93;;;;;;;;;;5078972;28;20112;-79
2024/01/05 09:45:16;;;;;;;12.18;5.97;;;;;;;;;;5116450;28;20077;-80
2024/01/05 09:47:43;;;;;;;14.15;6.82;;;;;;;;;;5118069;28;20047;-80
2024/01/05 09:50:09;;;;;;;15.23;5.32;;;;;;;;;;5099614;28;20046;-80
2024/01/05 09:52:36;;;;;;;8.50;3.28;;;;;;;;;;5118152;28;20043;-80
2024/01/05 09:55:02;;;;;;;5.28;1.63;;;;;;;;;;5117951;28;20395;-80
2024/01/05 09:57:28;;;;;;;3.47;1.15;;;;;;;;;;5118120;28;20047;-80
2024/01/05 09:59:55;;;;;;;5.10;0.98;;;;;;;;;;5099302;28;20621;-80
2024/01/05 10:02:42;;;;;;;5.35;1.02;;;;;;;;;;5099457;28;20054;-80
2024/01/05 10:05:09;;;;;;;4.13;0.50;;;;;;;;;;5099797;28;20118;-80
2024/01/05 10:07:45;;;;;;;1.88;0.70;;;;;;;;;;5117810;28;20409;-80
2024/01/05 10:10:12;;;;;;;2.58;0.98;;;;;;;;;;5099689;28;20384;-80
2024/01/05 10:12:39;;;;;;;4.35;0.70;;;;;;;;;;5117570;28;20109;-80
2024/01/05 10:15:06;;;;;;;6.22;0.90;;;;;;;;;;5117529;28;20047;-80
2024/01/05 10:17:33;;;;;;;5.90;0.93;;;;;;;;;;5099531;28;20047;-80
2024/01/05 10:20:12;;;;;;;3.13;1.05;;;;;;;;;;5117008;28;20055;-80
2024/01/05 10:22:38;;;;;;;4.38;1.67;;;;;;;;;;5082638;28;20054;-80
2024/01/05 10:25:18;;;;;;;5.47;1.58;;;;;;;;;;5099174;28;20404;-81
2024/01/05 10:27:48;;;;;;;4.43;1.13;;;;;;;;;;5099750;28;20044;-80
2024/01/05 10:30:24;;;;;;;4.05;0.98;;;;;;;;;;5117335;28;20134;-80
2024/01/05 10:33:04;;;;;;;4.65;0.95;;;;;;;;;;5099424;28;20368;-80
2024/01/05 10:35:30;;;;;;;5.25;0.70;;;;;;;;;;5117160;28;20040;-81
2024/01/05 10:38:06;;;;;;;0.57;0.20;;;;;;;;;;5099190;28;20123;-80
2024/01/05 10:40:33;;;;;;;1.20;0.20;;;;;;;;;;5099467;28;20617;-80
2024/01/05 10:43:09;;;;;;;1.83;0.30;;;;;;;;;;5081813;28;20062;-80
2024/01/05 10:45:35;;;;;;;1.50;0.45;;;;;;;;;;5116905;28;20043;-80
2024/01/05 10:48:03;;;;;;;1.30;0.50;;;;;;;;;;5098650;28;20077;-80
2024/01/05 10:50:30;;;;;;;1.55;0.30;;;;;;;;;;5098153;28;20048;-80
2024/01/05 10:52:57;;;;;;;2.60;0.40;;;;;;;;;;5116882;28;20043;-80
2024/01/05 10:55:23;;;;;;;3.05;0.60;;;;;;;;;;5098324;28;20051;-80
2024/01/05 10:57:49;;;;;;;3.13;0.40;;;;;;;;;;5116020;28;20085;-80
2024/01/05 11:00:15;;;;;;;1.30;0.30;;;;;;;;;;5081891;28;20388;-80
2024/01/05 11:02:42;;;;;;;1.95;0.30;;;;;;;;;;5116633;28;20043;-80
2024/01/05 11:05:09;;;;;;;1.00;0.20;;;;;;;;;;5098350;28;20071;-79
2024/01/05 11:07:36;;;;;;;2.22;0.10;;;;;;;;;;5081764;28;20056;-80
2024/01/05 11:10:08;;;;;;;1.60;0.10;;;;;;;;;;5081672;28;20051;-80
2024/01/05 11:12:53;;;;;;;2.38;0.10;;;;;;;;;;5081740;28;20138;-79
2024/01/05 11:15:43;;;;;;;0.90;0.10;;;;;;;;;;5098359;28;20051;-79
2024/01/05 11:18:18;;;;;;;1.10;0.00;;;;;;;;;;5088189;28;20044;-80
2024/01/05 11:21:03;;;;;;;0.22;0.10;;;;;;;;;;5097875;28;20051;-80
2024/01/05 11:23:30;;;;;;;0.80;0.15;;;;;;;;;;5116306;28;20085;-80
2024/01/05 11:25:56;;;;;;;0.63;0.10;;;;;;;;;;5080982;28;20043;-80
2024/01/05 11:28:35;;;;;;;0.22;0.10;;;;;;;;;;5116165;28;20047;-80
2024/01/05 11:31:01;;;;;;;0.40;0.10;;;;;;;;;;5098208;28;20047;-80
2024/01/05 11:33:44;;;;;;;1.05;0.10;;;;;;;;;;5098090;28;20055;-80
2024/01/05 11:36:10;;;;;;;0.90;0.30;;;;;;;;;;5098014;28;20151;-80
2024/01/05 11:38:42;;;;;;;1.38;0.20;;;;;;;;;;5097946;28;20083;-80
2024/01/05 11:41:18;;;;;;;0.47;0.10;;;;;;;;;;5097942;28;20126;-80
2024/01/05 11:43:44;;;;;;;0.55;0.10;;;;;;;;;;5097390;28;20059;-80
2024/01/05 11:46:10;;;;;;;0.45;0.20;;;;;;;;;;5097526;28;20051;-80
2024/01/05 11:48:36;;;;;;;1.83;0.28;;;;;;;;;;5097875;28;20426;-80
2024/01/05 11:51:02;;;;;;;0.73;0.10;;;;;;;;;;5115391;28;20369;-80
2024/01/05 11:53:29;;;;;;;2.60;0.20;;;;;;;;;;5097712;28;20474;-80
2024/01/05 11:55:56;;;;;;;2.53;0.20;;;;;;;;;;5080557;28;20044;-80
2024/01/05 11:58:31;;;;;;;0.70;0.10;;;;;;;;;;5115559;28;20075;-80
2024/01/05 12:00:59;;;;;;;0.85;0.10;;;;;;;;;;5115717;28;20122;-80
2024/01/05 12:03:25;;;;;;;0.65;0.10;;;;;;;;;;5097636;28;20391;-80
2024/01/05 12:05:56;;;;;;;1.35;0.20;;;;;;;;;;5115501;28;20130;-79
2024/01/05 12:08:22;;;;;;;0.98;0.10;;;;;;;;;;5096904;28;20169;-79
2024/01/05 12:10:53;;;;;;;0.77;0.15;;;;;;;;;;5097386;28;20059;-80
2024/01/05 12:13:24;;;;;;;2.28;0.22;;;;;;;;;;5097272;28;20079;-80
2024/01/05 12:15:53;;;;;;;0.90;0.40;;;;;;;;;;5115177;28;20054;-79
2024/01/05 12:18:25;;;;;;;1.52;0.20;;;;;;;;;;5115140;28;20433;-80
2024/01/05 12:20:54;;;;;;;1.75;0.20;;;;;;;;;;5114838;28;20390;-78
2024/01/05 12:23:21;;;;;;;0.30;0.20;;;;;;;;;;5097120;28;20087;-79
2024/01/05 12:26:00;;;;;;;0.80;0.20;;;;;;;;;;5114939;28;20047;-79
2024/01/05 12:28:28;;;;;;;1.00;0.10;;;;;;;;;;5114932;28;20047;-80
2024/01/05 12:30:55;;;;;;;0.75;0.20;;;;;;;;;;5114895;28;20495;-79
2024/01/05 12:33:21;;;;;;;1.08;0.20;;;;;;;;;;5114608;28;20415;-80
2024/01/05 12:35:48;;;;;;;0.40;0.20;;;;;;;;;;5080509;28;20048;-80
2024/01/05 12:38:21;;;;;;;1.17;0.20;;;;;;;;;;5096791;28;20055;-80
2024/01/05 12:40:47;;;;;;;1.77;0.20;;;;;;;;;;5096694;28;20130;-80
2024/01/05 12:43:13;;;;;;;0.20;0.10;;;;;;;;;;5096442;28;20059;-80
2024/01/05 12:45:39;;;;;;;0.40;0.20;;;;;;;;;;5096439;28;20059;-80
2024/01/05 12:48:10;;;;;;;0.50;0.30;;;;;;;;;;5096225;28;20078;-81
2024/01/05 12:50:36;;;;;;;0.88;0.20;;;;;;;;;;5096807;28;20087;-80
2024/01/05 12:53:15;;;;;;;1.13;0.30;;;;;;;;;;5096572;28;20542;-80
2024/01/05 12:55:41;;;;;;;0.45;0.28;;;;;;;;;;5114621;28;20050;-80
2024/01/05 12:58:08;;;;;;;1.05;0.20;;;;;;;;;;5096450;28;20055;-80
2024/01/05 13:00:40;;;;;;;1.30;0.30;;;;;;;;;;5096452;28;20130;-79
2024/01/05 13:03:12;;;;;;;0.50;0.30;;;;;;;;;;5096589;28;20050;-79
2024/01/05 13:05:38;;;;;;;0.60;0.20;;;;;;;;;;5131881;27;20039;-78
2024/01/05 13:08:04;;;;;;;0.40;0.20;;;;;;;;;;5116452;28;20051;-78
2024/01/05 13:10:31;;;;;;;0.73;0.20;;;;;;;;;;5134752;27;20047;-79
2024/01/05 13:12:57;;;;;;;0.77;0.52;;;;;;;;;;5134807;27;20078;-78
2024/01/05 13:15:23;;;;;;;0.40;0.20;;;;;;;;;;5116690;27;20050;-79
2024/01/05 13:17:51;;;;;;;0.68;0.40;;;;;;;;;;5134783;27;20047;-79
2024/01/05 13:20:19;;;;;;;1.30;0.30;;;;;;;;;;5115445;28;20130;-79
2024/01/05 13:22:45;;;;;;;0.52;0.20;;;;;;;;;;5134674;28;20058;-79
2024/01/05 13:25:12;;;;;;;1.58;0.40;;;;;;;;;;5134637;28;20050;-79
2024/01/05 13:27:41;;;;;;;1.25;0.20;;;;;;;;;;5116347;28;20043;-79
2024/01/05 13:30:13;;;;;;;1.30;0.20;;;;;;;;;;5134671;28;20047;-79
2024/01/05 13:32:42;;;;;;;0.82;0.20;;;;;;;;;;5134877;28;20478;-79
2024/01/05 13:35:09;;;;;;;0.50;0.30;;;;;;;;;;5118154;28;20035;-79
2024/01/05 13:37:36;;;;;;;0.40;0.30;;;;;;;;;;5127057;28;20058;-79
2024/01/05 13:40:03;;;;;;;1.90;0.40;;;;;;;;;;5134258;28;20047;-79
2024/01/05 13:42:29;;;;;;;0.68;0.40;;;;;;;;;;5134310;28;20071;-79
2024/01/05 13:44:56;;;;;;;2.35;0.52;;;;;;;;;;5115889;28;20056;-79
2024/01/05 13:47:25;;;;;;;1.55;0.95;;;;;;;;;;5116077;28;20082;-79
2024/01/05 13:49:51;;;;;;;3.97;2.28;;;;;;;;;;5134432;28;20043;-79
2024/01/05 13:52:17;;;;;;;1.52;0.68;;;;;;;;;;5115948;28;20527;-79
2024/01/05 13:54:44;;;;;;;1.38;0.57;;;;;;;;;;5134375;28;20095;-80
2024/01/05 13:57:10;;;;;;;1.25;0.38;;;;;;;;;;5134232;28;20055;-79
2024/01/05 13:59:36;;;;;;;0.70;0.47;;;;;;;;;;5134382;28;20054;-79
2024/01/05 14:02:02;;;;;;;1.70;0.52;;;;;;;;;;5116226;28;20057;-79
2024/01/05 14:04:29;;;;;;;2.22;0.60;;;;;;;;;;5116148;28;20050;-78
2024/01/05 14:06:55;;;;;;;1.63;0.50;;;;;;;;;;5133978;28;20131;-78
2024/01/05 14:09:21;;;;;;;0.85;0.57;;;;;;;;;;5133849;28;20490;-79
2024/01/05 14:11:47;;;;;;;0.60;0.50;;;;;;;;;;5134259;28;20451;-78
2024/01/05 14:14:13;;;;;;;0.93;0.40;;;;;;;;;;5115061;28;20058;-77
2024/01/05 14:16:41;;;;;;;0.80;0.50;;;;;;;;;;5134284;28;20096;-77
2024/01/05 14:19:07;;;;;;;0.70;0.45;;;;;;;;;;5126056;28;20040;-78
2024/01/05 14:21:33;;;;;;;0.95;0.85;;;;;;;;;;5123044;28;20044;-78
2024/01/05 14:23:59;;;;;;;1.20;0.77;;;;;;;;;;5113608;28;20096;-78
2024/01/05 14:26:26;;;;;;;2.13;1.17;;;;;;;;;;5113222;28;20048;-79
2024/01/05 14:28:52;;;;;;;3.58;1.40;;;;;;;;;;5095601;28;20112;-79